sensor_id;sensor_type;location;lat;lon;timestamp;temperature;humidity
21001;DHT22;10658;50.920;12.238;2023-03-01T00:03:57;-3.80;99.90
21001;DHT22;10658;50.920;12.238;2023-03-01T00:07:58;-3.80;99.90
21001;DHT22;10658;50.920;12.238;2023-03-01T00:11:59;-3.80;99.90
21001;DHT22;10658;50.920;12.238;2023-03-01T00:16:06;-3.80;99.90
21001;DHT22;10658;50.920;12.238;2023-03-01T00:20:08;-3.80;99.90
21001;DHT22;10658;50.920;12.238;2023-03-01T00:24:11;-3.90;99.90
21001;DHT22;10658;50.920;12.238;2023-03-01T00:28:13;-3.90;99.90
21001;DHT22;10658;50.920;12.238;2023-03-01T00:32:16;-4.00;99.90
21001;DHT22;10658;50.920;12.238;2023-03-01T00:36:17;-4.00;99.90
21001;DHT22;10658;50.920;12.238;2023-03-01T00:40:19;-4.10;99.90
21001;DHT22;10658;50.920;12.238;2023-03-01T00:44:21;-4.10;99.90
21001;DHT22;10658;50.920;12.238;2023-03-01T00:48:22;-4.10;99.90
21001;DHT22;10658;50.920;12.238;2023-03-01T00:52:23;-4.20;99.90
21001;DHT22;10658;50.920;12.238;2023-03-01T00:56:24;-4.20;99.90
21001;DHT22;10658;50.920;12.238;2023-03-01T01:00:27;-4.30;99.90
21001;DHT22;10658;50.920;12.238;2023-03-01T01:04:28;-4.40;99.90
21001;DHT22;10658;50.920;12.238;2023-03-01T01:08:31;-4.40;99.90
21001;DHT22;10658;50.920;12.238;2023-03-01T01:12:32;-4.40;99.90
21001;DHT22;10658;50.920;12.238;2023-03-01T01:16:33;-4.40;99.90
21001;DHT22;10658;50.920;12.238;2023-03-01T01:20:36;-4.40;99.90
21001;DHT22;10658;50.920;12.238;2023-03-01T01:24:38;-4.50;99.90
21001;DHT22;10658;50.920;12.238;2023-03-01T01:28:40;-4.60;99.90
21001;DHT22;10658;50.920;12.238;2023-03-01T01:32:42;-4.60;99.90
21001;DHT22;10658;50.920;12.238;2023-03-01T01:36:51;-4.60;99.90
21001;DHT22;10658;50.920;12.238;2023-03-01T01:40:54;-4.60;99.90
21001;DHT22;10658;50.920;12.238;2023-03-01T01:45:31;-4.70;99.90
21001;DHT22;10658;50.920;12.238;2023-03-01T01:53:49;-4.80;99.90
21001;DHT22;10658;50.920;12.238;2023-03-01T01:57:54;-4.80;99.90
21001;DHT22;10658;50.920;12.238;2023-03-01T02:01:59;-4.90;99.90
21001;DHT22;10658;50.920;12.238;2023-03-01T02:06:33;-4.90;99.90
21001;DHT22;10658;50.920;12.238;2023-03-01T02:10:37;-4.90;99.90
21001;DHT22;10658;50.920;12.238;2023-03-01T02:14:39;-4.90;99.90
21001;DHT22;10658;50.920;12.238;2023-03-01T02:18:41;-4.90;99.90
21001;DHT22;10658;50.920;12.238;2023-03-01T02:22:45;-4.90;99.90
21001;DHT22;10658;50.920;12.238;2023-03-01T02:26:50;-5.10;99.90
21001;DHT22;10658;50.920;12.238;2023-03-01T02:30:56;-5.10;99.90
21001;DHT22;10658;50.920;12.238;2023-03-01T02:35:18;-5.10;99.90
21001;DHT22;10658;50.920;12.238;2023-03-01T02:39:25;-5.10;99.90
21001;DHT22;10658;50.920;12.238;2023-03-01T02:43:30;-5.10;99.90
21001;DHT22;10658;50.920;12.238;2023-03-01T02:47:35;-5.10;99.90
21001;DHT22;10658;50.920;12.238;2023-03-01T02:52:11;-5.10;99.90
21001;DHT22;10658;50.920;12.238;2023-03-01T02:56:17;-5.20;99.90
21001;DHT22;10658;50.920;12.238;2023-03-01T03:00:23;-5.20;99.90
21001;DHT22;10658;50.920;12.238;2023-03-01T03:04:26;-5.30;99.90
21001;DHT22;10658;50.920;12.238;2023-03-01T03:08:27;-5.30;99.90
21001;DHT22;10658;50.920;12.238;2023-03-01T03:18:25;-5.50;99.90
21001;DHT22;10658;50.920;12.238;2023-03-01T03:22:27;-5.50;99.90
21001;DHT22;10658;50.920;12.238;2023-03-01T03:26:29;-5.50;99.90
21001;DHT22;10658;50.920;12.238;2023-03-01T03:30:31;-5.60;99.90
21001;DHT22;10658;50.920;12.238;2023-03-01T03:34:33;-5.60;99.90
21001;DHT22;10658;50.920;12.238;2023-03-01T03:38:34;-5.60;99.90
21001;DHT22;10658;50.920;12.238;2023-03-01T03:42:35;-5.60;99.90
21001;DHT22;10658;50.920;12.238;2023-03-01T03:46:36;-5.60;99.90
21001;DHT22;10658;50.920;12.238;2023-03-01T03:50:39;-5.70;99.90
21001;DHT22;10658;50.920;12.238;2023-03-01T03:54:41;-5.70;99.90
21001;DHT22;10658;50.920;12.238;2023-03-01T03:58:42;-5.70;99.90
21001;DHT22;10658;50.920;12.238;2023-03-01T04:02:44;-5.80;99.90
21001;DHT22;10658;50.920;12.238;2023-03-01T04:06:46;-5.80;99.90
21001;DHT22;10658;50.920;12.238;2023-03-01T04:10:51;-5.80;99.90
21001;DHT22;10658;50.920;12.238;2023-03-01T04:14:52;-5.80;99.90
21001;DHT22;10658;50.920;12.238;2023-03-01T04:18:54;-5.80;99.90
21001;DHT22;10658;50.920;12.238;2023-03-01T04:23:09;-5.80;99.90
21001;DHT22;10658;50.920;12.238;2023-03-01T04:27:16;-5.80;99.90
21001;DHT22;10658;50.920;12.238;2023-03-01T04:31:18;-5.90;99.90
21001;DHT22;10658;50.920;12.238;2023-03-01T04:35:21;-5.90;99.90
21001;DHT22;10658;50.920;12.238;2023-03-01T04:39:22;-5.90;99.90
21001;DHT22;10658;50.920;12.238;2023-03-01T04:43:23;-6.00;99.90
21001;DHT22;10658;50.920;12.238;2023-03-01T04:47:24;-6.00;99.90
21001;DHT22;10658;50.920;12.238;2023-03-01T04:51:27;-6.10;99.90
21001;DHT22;10658;50.920;12.238;2023-03-01T04:55:28;-6.10;99.90
21001;DHT22;10658;50.920;12.238;2023-03-01T04:59:30;-6.10;99.90
21001;DHT22;10658;50.920;12.238;2023-03-01T05:03:31;-6.10;99.90
21001;DHT22;10658;50.920;12.238;2023-03-01T05:07:32;-6.10;99.90
21001;DHT22;10658;50.920;12.238;2023-03-01T05:11:33;-6.10;99.90
21001;DHT22;10658;50.920;12.238;2023-03-01T05:15:40;-6.10;99.90
21001;DHT22;10658;50.920;12.238;2023-03-01T05:19:41;-6.20;99.90
21001;DHT22;10658;50.920;12.238;2023-03-01T05:23:44;-6.30;99.90
21001;DHT22;10658;50.920;12.238;2023-03-01T05:27:45;-6.30;99.90
21001;DHT22;10658;50.920;12.238;2023-03-01T05:31:46;-6.30;99.90
21001;DHT22;10658;50.920;12.238;2023-03-01T05:35:48;-6.30;99.90
21001;DHT22;10658;50.920;12.238;2023-03-01T05:39:50;-6.30;99.90
21001;DHT22;10658;50.920;12.238;2023-03-01T05:43:52;-6.40;99.90
21001;DHT22;10658;50.920;12.238;2023-03-01T05:47:53;-6.40;99.90
21001;DHT22;10658;50.920;12.238;2023-03-01T05:51:55;-6.40;99.90
21001;DHT22;10658;50.920;12.238;2023-03-01T05:55:56;-6.40;99.90
21001;DHT22;10658;50.920;12.238;2023-03-01T05:59:57;-6.40;99.90
21001;DHT22;10658;50.920;12.238;2023-03-01T06:03:59;-6.40;99.90
21001;DHT22;10658;50.920;12.238;2023-03-01T06:08:00;-6.40;99.90
21001;DHT22;10658;50.920;12.238;2023-03-01T06:12:02;-6.30;99.90
21001;DHT22;10658;50.920;12.238;2023-03-01T06:16:06;-6.30;99.90
21001;DHT22;10658;50.920;12.238;2023-03-01T06:20:11;-6.30;99.90
21001;DHT22;10658;50.920;12.238;2023-03-01T06:24:12;-6.30;99.90
21001;DHT22;10658;50.920;12.238;2023-03-01T06:28:13;-6.20;99.90
21001;DHT22;10658;50.920;12.238;2023-03-01T06:32:15;-6.20;99.90
21001;DHT22;10658;50.920;12.238;2023-03-01T06:36:18;-6.10;99.90
21001;DHT22;10658;50.920;12.238;2023-03-01T06:40:21;-5.90;99.90
21001;DHT22;10658;50.920;12.238;2023-03-01T06:44:22;-5.60;99.90
21001;DHT22;10658;50.920;12.238;2023-03-01T06:48:23;-5.20;99.90
21001;DHT22;10658;50.920;12.238;2023-03-01T06:52:25;-4.80;99.90
21001;DHT22;10658;50.920;12.238;2023-03-01T06:56:28;-4.40;99.90
21001;DHT22;10658;50.920;12.238;2023-03-01T07:00:30;-3.70;99.90
21001;DHT22;10658;50.920;12.238;2023-03-01T07:04:32;-3.30;99.90
21001;DHT22;10658;50.920;12.238;2023-03-01T07:08:33;-3.00;99.90
21001;DHT22;10658;50.920;12.238;2023-03-01T07:12:34;-2.60;99.90
21001;DHT22;10658;50.920;12.238;2023-03-01T07:16:37;-2.30;99.90
21001;DHT22;10658;50.920;12.238;2023-03-01T07:20:38;-2.10;99.90
21001;DHT22;10658;50.920;12.238;2023-03-01T07:24:41;-1.90;99.90
21001;DHT22;10658;50.920;12.238;2023-03-01T07:28:48;-1.70;99.90
21001;DHT22;10658;50.920;12.238;2023-03-01T07:32:50;-1.50;99.90
21001;DHT22;10658;50.920;12.238;2023-03-01T07:36:51;-1.40;99.90
21001;DHT22;10658;50.920;12.238;2023-03-01T07:40:52;-1.20;99.90
21001;DHT22;10658;50.920;12.238;2023-03-01T07:44:53;-1.20;99.90
21001;DHT22;10658;50.920;12.238;2023-03-01T07:48:55;-1.00;99.90
21001;DHT22;10658;50.920;12.238;2023-03-01T07:52:56;-0.90;99.90
21001;DHT22;10658;50.920;12.238;2023-03-01T07:57:03;-0.80;99.90
21001;DHT22;10658;50.920;12.238;2023-03-01T08:01:05;-0.60;99.90
21001;DHT22;10658;50.920;12.238;2023-03-01T08:21:44;0.00;99.90
21001;DHT22;10658;50.920;12.238;2023-03-01T09:54:14;2.60;99.90
21001;DHT22;10658;50.920;12.238;2023-03-01T10:15:47;2.70;99.90
21001;DHT22;10658;50.920;12.238;2023-03-01T10:30:29;3.00;99.90
21001;DHT22;10658;50.920;12.238;2023-03-01T10:34:34;3.00;99.90
21001;DHT22;10658;50.920;12.238;2023-03-01T10:38:56;3.20;99.90
21001;DHT22;10658;50.920;12.238;2023-03-01T10:43:19;3.30;99.90
21001;DHT22;10658;50.920;12.238;2023-03-01T10:47:26;3.30;99.90
21001;DHT22;10658;50.920;12.238;2023-03-01T10:51:54;3.40;99.90
21001;DHT22;10658;50.920;12.238;2023-03-01T10:56:10;3.40;99.90
21001;DHT22;10658;50.920;12.238;2023-03-01T11:00:22;3.40;99.90
21001;DHT22;10658;50.920;12.238;2023-03-01T11:04:28;3.50;99.90
21001;DHT22;10658;50.920;12.238;2023-03-01T11:09:15;3.70;99.90
21001;DHT22;10658;50.920;12.238;2023-03-01T11:13:24;3.90;99.90
21001;DHT22;10658;50.920;12.238;2023-03-01T11:17:53;4.00;99.90
21001;DHT22;10658;50.920;12.238;2023-03-01T11:22:13;4.10;99.90
21001;DHT22;10658;50.920;12.238;2023-03-01T11:26:15;4.20;99.90
21001;DHT22;10658;50.920;12.238;2023-03-01T11:44:28;4.50;99.90
21001;DHT22;10658;50.920;12.238;2023-03-01T11:48:44;4.50;99.90
21001;DHT22;10658;50.920;12.238;2023-03-01T11:53:27;4.40;99.90
21001;DHT22;10658;50.920;12.238;2023-03-01T11:57:37;4.40;99.90
21001;DHT22;10658;50.920;12.238;2023-03-01T12:06:21;4.40;99.90
21001;DHT22;10658;50.920;12.238;2023-03-01T12:10:44;4.40;99.90
21001;DHT22;10658;50.920;12.238;2023-03-01T12:19:37;4.50;99.90
21001;DHT22;10658;50.920;12.238;2023-03-01T12:24:04;4.40;99.90
21001;DHT22;10658;50.920;12.238;2023-03-01T12:51:02;4.00;99.90
21001;DHT22;10658;50.920;12.238;2023-03-01T12:55:17;4.00;99.90
21001;DHT22;10658;50.920;12.238;2023-03-01T13:08:13;3.80;99.90
21001;DHT22;10658;50.920;12.238;2023-03-01T13:16:46;3.90;99.90
21001;DHT22;10658;50.920;12.238;2023-03-01T13:21:08;3.90;99.90
21001;DHT22;10658;50.920;12.238;2023-03-01T13:25:15;3.90;99.90
21001;DHT22;10658;50.920;12.238;2023-03-01T13:29:26;3.90;99.90
21001;DHT22;10658;50.920;12.238;2023-03-01T13:37:36;3.90;99.90
21001;DHT22;10658;50.920;12.238;2023-03-01T13:45:42;3.80;99.90
21001;DHT22;10658;50.920;12.238;2023-03-01T13:50:00;3.90;99.90
21001;DHT22;10658;50.920;12.238;2023-03-01T13:54:30;3.90;99.90
21001;DHT22;10658;50.920;12.238;2023-03-01T13:58:33;4.00;99.90
21001;DHT22;10658;50.920;12.238;2023-03-01T14:02:45;4.00;99.90
21001;DHT22;10658;50.920;12.238;2023-03-01T14:06:47;3.90;99.90
21001;DHT22;10658;50.920;12.238;2023-03-01T14:10:56;3.90;99.90
21001;DHT22;10658;50.920;12.238;2023-03-01T14:20:30;3.90;99.90
21001;DHT22;10658;50.920;12.238;2023-03-01T14:24:38;3.90;99.90
21001;DHT22;10658;50.920;12.238;2023-03-01T14:28:42;3.80;99.90
21001;DHT22;10658;50.920;12.238;2023-03-01T14:33:35;3.90;99.90
21001;DHT22;10658;50.920;12.238;2023-03-01T14:43:29;3.90;99.90
21001;DHT22;10658;50.920;12.238;2023-03-01T14:47:39;4.00;99.90
21001;DHT22;10658;50.920;12.238;2023-03-01T14:52:04;4.00;99.90
21001;DHT22;10658;50.920;12.238;2023-03-01T14:56:14;4.00;99.90
21001;DHT22;10658;50.920;12.238;2023-03-01T15:00:24;4.10;99.90
21001;DHT22;10658;50.920;12.238;2023-03-01T15:04:58;4.00;99.90
21001;DHT22;10658;50.920;12.238;2023-03-01T15:09:29;4.00;99.90
21001;DHT22;10658;50.920;12.238;2023-03-01T15:13:45;4.00;99.90
21001;DHT22;10658;50.920;12.238;2023-03-01T15:17:59;4.00;99.90
21001;DHT22;10658;50.920;12.238;2023-03-01T15:22:01;4.10;99.90
21001;DHT22;10658;50.920;12.238;2023-03-01T15:26:35;4.00;99.90
21001;DHT22;10658;50.920;12.238;2023-03-01T15:30:37;4.00;99.90
21001;DHT22;10658;50.920;12.238;2023-03-01T15:34:39;4.20;99.90
21001;DHT22;10658;50.920;12.238;2023-03-01T15:38:55;4.40;99.90
21001;DHT22;10658;50.920;12.238;2023-03-01T15:43:03;4.40;99.90
21001;DHT22;10658;50.920;12.238;2023-03-01T15:47:29;4.30;99.90
21001;DHT22;10658;50.920;12.238;2023-03-01T15:51:36;4.10;99.90
21001;DHT22;10658;50.920;12.238;2023-03-01T15:55:40;3.90;99.90
21001;DHT22;10658;50.920;12.238;2023-03-01T15:59:44;3.80;99.90
21001;DHT22;10658;50.920;12.238;2023-03-01T16:03:49;3.60;99.90
21001;DHT22;10658;50.920;12.238;2023-03-01T16:07:54;3.50;99.90
21001;DHT22;10658;50.920;12.238;2023-03-01T16:11:57;3.30;99.90
21001;DHT22;10658;50.920;12.238;2023-03-01T16:15:59;3.20;99.90
21001;DHT22;10658;50.920;12.238;2023-03-01T16:20:02;3.20;99.90
21001;DHT22;10658;50.920;12.238;2023-03-01T16:24:06;3.10;99.90
21001;DHT22;10658;50.920;12.238;2023-03-01T16:28:07;3.00;99.90
21001;DHT22;10658;50.920;12.238;2023-03-01T16:32:20;2.90;99.90
21001;DHT22;10658;50.920;12.238;2023-03-01T16:36:24;2.70;99.90
21001;DHT22;10658;50.920;12.238;2023-03-01T16:40:28;2.60;99.90
21001;DHT22;10658;50.920;12.238;2023-03-01T16:44:31;2.50;99.90
21001;DHT22;10658;50.920;12.238;2023-03-01T16:48:34;2.30;99.90
21001;DHT22;10658;50.920;12.238;2023-03-01T16:52:38;2.20;99.90
21001;DHT22;10658;50.920;12.238;2023-03-01T16:56:42;2.10;99.90
21001;DHT22;10658;50.920;12.238;2023-03-01T17:00:45;1.90;99.90
21001;DHT22;10658;50.920;12.238;2023-03-01T17:04:54;1.80;99.90
21001;DHT22;10658;50.920;12.238;2023-03-01T17:19:06;1.30;99.90
21001;DHT22;10658;50.920;12.238;2023-03-01T17:23:27;1.10;99.90
21001;DHT22;10658;50.920;12.238;2023-03-01T17:38:17;0.70;99.90
21001;DHT22;10658;50.920;12.238;2023-03-01T17:42:22;0.60;99.90
21001;DHT22;10658;50.920;12.238;2023-03-01T17:46:23;0.50;99.90
21001;DHT22;10658;50.920;12.238;2023-03-01T17:50:25;0.50;99.90
21001;DHT22;10658;50.920;12.238;2023-03-01T17:54:28;0.50;99.90
21001;DHT22;10658;50.920;12.238;2023-03-01T17:58:36;0.60;99.90
21001;DHT22;10658;50.920;12.238;2023-03-01T18:02:41;0.50;99.90
21001;DHT22;10658;50.920;12.238;2023-03-01T18:06:46;0.40;99.90
21001;DHT22;10658;50.920;12.238;2023-03-01T18:10:47;0.20;99.90
21001;DHT22;10658;50.920;12.238;2023-03-01T18:14:49;0.10;99.90
21001;DHT22;10658;50.920;12.238;2023-03-01T18:18:54;0.00;99.90
21001;DHT22;10658;50.920;12.238;2023-03-01T18:22:56;-0.10;99.90
21001;DHT22;10658;50.920;12.238;2023-03-01T18:27:00;-0.10;99.90
21001;DHT22;10658;50.920;12.238;2023-03-01T18:31:04;0.00;99.90
21001;DHT22;10658;50.920;12.238;2023-03-01T18:35:12;0.00;99.90
21001;DHT22;10658;50.920;12.238;2023-03-01T18:39:14;0.20;99.90
21001;DHT22;10658;50.920;12.238;2023-03-01T18:43:19;0.40;99.90
21001;DHT22;10658;50.920;12.238;2023-03-01T18:47:20;0.50;99.90
21001;DHT22;10658;50.920;12.238;2023-03-01T18:51:26;0.30;99.90
21001;DHT22;10658;50.920;12.238;2023-03-01T18:55:36;0.20;99.90
21001;DHT22;10658;50.920;12.238;2023-03-01T18:59:41;0.20;99.90
21001;DHT22;10658;50.920;12.238;2023-03-01T19:03:44;0.30;99.90
21001;DHT22;10658;50.920;12.238;2023-03-01T19:07:46;0.10;99.90
21001;DHT22;10658;50.920;12.238;2023-03-01T19:11:49;0.00;99.90
21001;DHT22;10658;50.920;12.238;2023-03-01T19:16:15;0.00;99.90
21001;DHT22;10658;50.920;12.238;2023-03-01T19:20:18;0.00;99.90
21001;DHT22;10658;50.920;12.238;2023-03-01T19:24:20;0.00;99.90
21001;DHT22;10658;50.920;12.238;2023-03-01T19:28:21;-0.10;99.90
21001;DHT22;10658;50.920;12.238;2023-03-01T19:32:23;-0.30;99.90
21001;DHT22;10658;50.920;12.238;2023-03-01T19:36:50;-0.40;99.90
21001;DHT22;10658;50.920;12.238;2023-03-01T19:40:54;-0.50;99.90
21001;DHT22;10658;50.920;12.238;2023-03-01T19:44:55;-0.70;99.90
21001;DHT22;10658;50.920;12.238;2023-03-01T19:48:58;-0.80;99.90
21001;DHT22;10658;50.920;12.238;2023-03-01T19:53:00;-0.80;99.90
21001;DHT22;10658;50.920;12.238;2023-03-01T19:57:02;-0.90;99.90
21001;DHT22;10658;50.920;12.238;2023-03-01T20:01:11;-1.00;99.90
21001;DHT22;10658;50.920;12.238;2023-03-01T20:05:17;-1.20;99.90
21001;DHT22;10658;50.920;12.238;2023-03-01T20:09:18;-1.20;99.90
21001;DHT22;10658;50.920;12.238;2023-03-01T20:13:22;-1.20;99.90
21001;DHT22;10658;50.920;12.238;2023-03-01T20:17:23;-1.20;99.90
21001;DHT22;10658;50.920;12.238;2023-03-01T20:21:27;-1.30;99.90
21001;DHT22;10658;50.920;12.238;2023-03-01T20:25:34;-1.30;99.90
21001;DHT22;10658;50.920;12.238;2023-03-01T20:29:36;-1.40;99.90
21001;DHT22;10658;50.920;12.238;2023-03-01T20:34:00;-1.40;99.90
21001;DHT22;10658;50.920;12.238;2023-03-01T20:38:08;-1.50;99.90
21001;DHT22;10658;50.920;12.238;2023-03-01T20:42:10;-1.60;99.90
21001;DHT22;10658;50.920;12.238;2023-03-01T20:46:12;-1.60;99.90
21001;DHT22;10658;50.920;12.238;2023-03-01T20:50:16;-1.60;99.90
21001;DHT22;10658;50.920;12.238;2023-03-01T20:54:19;-1.60;99.90
21001;DHT22;10658;50.920;12.238;2023-03-01T20:58:21;-1.60;99.90
21001;DHT22;10658;50.920;12.238;2023-03-01T21:02:25;-1.50;99.90
21001;DHT22;10658;50.920;12.238;2023-03-01T21:06:28;-1.50;99.90
21001;DHT22;10658;50.920;12.238;2023-03-01T21:10:29;-1.60;99.90
21001;DHT22;10658;50.920;12.238;2023-03-01T21:14:32;-1.50;99.90
21001;DHT22;10658;50.920;12.238;2023-03-01T21:28:45;-1.20;99.90
21001;DHT22;10658;50.920;12.238;2023-03-01T21:32:46;-1.20;99.90
21001;DHT22;10658;50.920;12.238;2023-03-01T21:36:47;-1.20;99.90
21001;DHT22;10658;50.920;12.238;2023-03-01T21:40:49;-1.30;99.90
21001;DHT22;10658;50.920;12.238;2023-03-01T21:44:50;-1.30;99.90
21001;DHT22;10658;50.920;12.238;2023-03-01T21:48:55;-1.50;99.90
21001;DHT22;10658;50.920;12.238;2023-03-01T21:52:57;-1.70;99.90
21001;DHT22;10658;50.920;12.238;2023-03-01T21:56:57;-1.70;99.90
21001;DHT22;10658;50.920;12.238;2023-03-01T22:01:12;-1.80;99.90
21001;DHT22;10658;50.920;12.238;2023-03-01T22:05:14;-1.60;99.90
21001;DHT22;10658;50.920;12.238;2023-03-01T22:09:21;-1.60;99.90
21001;DHT22;10658;50.920;12.238;2023-03-01T22:13:24;-1.40;99.90
21001;DHT22;10658;50.920;12.238;2023-03-01T22:17:25;-1.20;99.90
21001;DHT22;10658;50.920;12.238;2023-03-01T22:21:26;-1.10;99.90
21001;DHT22;10658;50.920;12.238;2023-03-01T22:25:30;-1.00;99.90
21001;DHT22;10658;50.920;12.238;2023-03-01T22:29:31;-0.80;99.90
21001;DHT22;10658;50.920;12.238;2023-03-01T22:33:34;-0.90;99.90
21001;DHT22;10658;50.920;12.238;2023-03-01T22:37:36;-0.80;99.90
21001;DHT22;10658;50.920;12.238;2023-03-01T22:41:41;-0.80;99.90
21001;DHT22;10658;50.920;12.238;2023-03-01T22:45:45;-0.80;99.90
21001;DHT22;10658;50.920;12.238;2023-03-01T22:49:48;-0.90;99.90
21001;DHT22;10658;50.920;12.238;2023-03-01T22:53:52;-0.90;99.90
21001;DHT22;10658;50.920;12.238;2023-03-01T22:57:53;-1.00;99.90
21001;DHT22;10658;50.920;12.238;2023-03-01T23:01:54;-1.00;99.90
21001;DHT22;10658;50.920;12.238;2023-03-01T23:05:58;-1.00;99.90
21001;DHT22;10658;50.920;12.238;2023-03-01T23:09:59;-1.10;99.90
21001;DHT22;10658;50.920;12.238;2023-03-01T23:14:02;-1.40;99.90
21001;DHT22;10658;50.920;12.238;2023-03-01T23:18:04;-1.50;99.90
21001;DHT22;10658;50.920;12.238;2023-03-01T23:22:06;-1.60;99.90
21001;DHT22;10658;50.920;12.238;2023-03-01T23:26:08;-1.70;99.90
21001;DHT22;10658;50.920;12.238;2023-03-01T23:30:11;-1.70;99.90
21001;DHT22;10658;50.920;12.238;2023-03-01T23:34:24;-1.80;99.90
21001;DHT22;10658;50.920;12.238;2023-03-01T23:38:26;-1.90;99.90
21001;DHT22;10658;50.920;12.238;2023-03-01T23:42:32;-1.90;99.90
21001;DHT22;10658;50.920;12.238;2023-03-01T23:46:34;-1.90;99.90
21001;DHT22;10658;50.920;12.238;2023-03-01T23:50:39;-2.00;99.90
21001;DHT22;10658;50.920;12.238;2023-03-01T23:54:42;-2.10;99.90
21001;DHT22;10658;50.920;12.238;2023-03-01T23:58:43;-2.10;99.90
